createdAt,value
2022-10-12T00:00:45.907Z,98714.94
2022-10-12T00:02:47.223Z,98719.19
2022-10-12T00:04:48.530Z,98710.66
2022-10-12T00:06:49.841Z,98725.19
2022-10-12T00:08:51.183Z,98718.19
2022-10-12T00:10:52.442Z,98723.97
2022-10-12T00:12:53.715Z,98722.19
2022-10-12T00:14:55.054Z,98717.88
2022-10-12T00:16:56.393Z,98725.53
2022-10-12T00:18:57.718Z,98717.91
2022-10-12T00:20:59.010Z,98725.59
2022-10-12T00:23:00.302Z,98727.31
2022-10-12T00:25:01.579Z,98718.81
2022-10-12T00:27:02.896Z,98720.66
2022-10-12T00:29:04.259Z,98712.78
2022-10-12T00:31:05.532Z,98714.00
2022-10-12T00:33:07.654Z,98717.88
2022-10-12T00:35:08.922Z,98720.41
2022-10-12T00:37:10.922Z,98725.81
2022-10-12T00:39:12.266Z,98723.44
2022-10-12T00:41:13.538Z,98726.25
2022-10-12T00:43:14.962Z,98722.25
2022-10-12T00:45:16.226Z,98728.44
2022-10-12T00:47:17.530Z,98732.78
2022-10-12T00:49:18.870Z,98732.66
2022-10-12T00:51:20.266Z,98734.56
2022-10-12T00:53:21.690Z,98733.19
2022-10-12T00:55:22.994Z,98730.38
2022-10-12T00:57:24.263Z,98730.38
2022-10-12T00:59:25.530Z,98727.88
2022-10-12T01:01:26.920Z,98729.09
2022-10-12T01:03:28.198Z,98720.59
2022-10-12T01:05:29.470Z,98737.41
2022-10-12T01:07:30.806Z,98591.88
2022-10-12T01:09:32.082Z,98717.63
2022-10-12T01:11:33.349Z,98715.25
2022-10-12T01:13:34.675Z,98718.34
2022-10-12T01:15:35.983Z,98710.50
2022-10-12T01:17:37.796Z,98715.91
2022-10-12T01:19:39.254Z,98715.06
2022-10-12T01:21:40.555Z,98710.78
2022-10-12T01:23:42.218Z,98712.38
2022-10-12T01:25:43.489Z,98720.31
2022-10-12T01:27:44.804Z,98718.78
2022-10-12T01:29:46.082Z,98712.97
2022-10-12T01:31:47.405Z,98707.84
2022-10-12T01:33:48.674Z,98703.91
2022-10-12T01:35:50.030Z,98716.88
2022-10-12T01:37:51.319Z,98713.59
2022-10-12T01:39:52.805Z,98712.84
2022-10-12T01:41:54.139Z,98718.00
2022-10-12T01:43:55.453Z,98713.84
2022-10-12T01:45:56.735Z,98713.06
2022-10-12T01:47:58.057Z,98713.97
2022-10-12T01:49:59.383Z,98715.72
2022-10-12T01:52:00.706Z,98702.13
2022-10-12T01:54:02.000Z,98710.69
2022-10-12T01:56:03.311Z,98716.66
2022-10-12T01:58:04.741Z,98708.16
2022-10-12T02:00:06.011Z,98706.50
2022-10-12T02:02:07.338Z,98703.94
2022-10-12T02:04:08.618Z,98704.78
2022-10-12T02:06:09.912Z,98706.53
2022-10-12T02:08:11.767Z,98709.06
2022-10-12T02:10:13.498Z,98703.13
2022-10-12T02:12:14.759Z,98702.31
2022-10-12T02:14:16.102Z,98704.03
2022-10-12T02:16:17.379Z,98704.06
2022-10-12T02:18:18.727Z,98701.50
2022-10-12T02:20:20.087Z,98709.22
2022-10-12T02:22:21.369Z,98703.22
2022-10-12T02:24:22.662Z,98700.66
2022-10-12T02:26:23.987Z,98707.47
2022-10-12T02:28:25.391Z,98699.81
2022-10-12T02:30:26.700Z,98706.66
2022-10-12T02:32:28.790Z,98703.25
2022-10-12T02:34:30.114Z,98702.41
2022-10-12T02:36:31.386Z,98705.81
2022-10-12T02:38:32.798Z,98701.56
2022-10-12T02:40:34.088Z,98700.72
2022-10-12T02:42:58.446Z,98696.44
2022-10-12T02:44:56.755Z,98699.88
2022-10-12T02:46:58.043Z,98700.72
2022-10-12T02:48:59.329Z,98698.16
2022-10-12T02:51:00.617Z,98690.47
2022-10-12T02:53:01.890Z,98698.19
2022-10-12T02:55:03.175Z,98693.13
2022-10-12T02:57:05.828Z,98689.75
2022-10-12T02:59:07.102Z,98692.31
2022-10-12T03:01:08.618Z,98690.63
2022-10-12T03:03:09.995Z,98683.84
2022-10-12T03:05:11.267Z,98681.28
2022-10-12T03:07:12.600Z,98687.25
2022-10-12T03:09:14.250Z,98694.03
2022-10-12T03:11:15.594Z,98690.63
2022-10-12T03:13:17.838Z,98688.06
2022-10-12T03:15:19.109Z,98690.63
2022-10-12T03:17:20.430Z,98687.19
2022-10-12T03:19:21.743Z,98689.75
2022-10-12T03:21:23.037Z,98684.63
2022-10-12T03:23:24.346Z,98688.91
2022-10-12T03:25:25.634Z,98694.00
2022-10-12T03:27:26.907Z,98696.56
2022-10-12T03:29:28.238Z,98690.59
2022-10-12T03:31:29.535Z,98692.31
2022-10-12T03:33:30.804Z,98680.38
2022-10-12T03:35:32.857Z,98675.28
2022-10-12T03:37:34.147Z,98680.38
2022-10-12T03:39:35.785Z,98676.06
2022-10-12T03:41:37.124Z,98677.72
2022-10-12T03:43:38.399Z,98674.31
2022-10-12T03:45:39.683Z,98677.72
2022-10-12T03:47:41.368Z,98679.44
2022-10-12T03:49:42.802Z,98672.66
2022-10-12T03:51:44.082Z,98676.88
2022-10-12T03:53:45.783Z,98676.91
2022-10-12T03:55:47.190Z,98676.06
2022-10-12T03:57:48.450Z,98673.50
2022-10-12T03:59:49.783Z,98670.91
2022-10-12T04:01:51.115Z,98676.78
2022-10-12T04:03:52.414Z,98675.06
2022-10-12T04:05:54.909Z,98678.53
2022-10-12T04:07:56.186Z,98681.91
2022-10-12T04:09:57.475Z,98678.50
2022-10-12T04:11:58.747Z,98681.09
2022-10-12T04:14:00.226Z,98676.88
2022-10-12T04:16:01.554Z,98682.88
2022-10-12T04:18:02.823Z,98669.28
2022-10-12T04:20:04.423Z,98675.28
2022-10-12T04:22:05.740Z,98677.91
2022-10-12T04:24:07.232Z,98684.75
2022-10-12T04:26:08.550Z,98678.81
2022-10-12T04:28:09.925Z,98680.53
2022-10-12T04:30:11.325Z,98677.97
2022-10-12T04:32:12.933Z,98679.59
2022-10-12T04:34:14.290Z,98677.06
2022-10-12T04:36:15.556Z,98671.06
2022-10-12T04:38:16.878Z,98683.00
2022-10-12T04:40:18.906Z,98669.41
2022-10-12T04:42:20.201Z,98672.00
2022-10-12T04:44:21.535Z,98675.41
2022-10-12T04:46:22.904Z,98679.66
2022-10-12T04:48:24.186Z,98666.88
2022-10-12T04:50:29.823Z,98672.84
2022-10-12T04:52:31.503Z,98675.41
2022-10-12T04:54:32.898Z,98677.06
2022-10-12T04:56:34.210Z,98677.97
2022-10-12T04:58:35.602Z,98678.81
2022-10-12T05:00:36.898Z,98675.41
2022-10-12T05:02:38.238Z,98680.53
2022-10-12T05:04:39.525Z,98667.75
2022-10-12T05:06:40.803Z,98672.84
2022-10-12T05:08:42.111Z,98679.66
2022-10-12T05:10:43.403Z,98683.06
2022-10-12T05:12:44.853Z,98679.63
2022-10-12T05:14:46.142Z,98675.38
2022-10-12T05:16:47.834Z,98676.22
2022-10-12T05:18:49.146Z,98682.16
2022-10-12T05:20:53.328Z,98686.34
2022-10-12T05:22:58.175Z,98687.19
2022-10-12T05:24:59.597Z,98689.75
2022-10-12T05:27:00.965Z,98686.28
2022-10-12T05:29:02.386Z,98685.44
2022-10-12T05:31:03.745Z,98693.13
2022-10-12T05:33:05.041Z,98685.47
2022-10-12T05:35:06.974Z,98684.59
2022-10-12T05:37:08.282Z,98688.00
2022-10-12T05:39:09.567Z,98687.16
2022-10-12T05:41:10.922Z,98691.41
2022-10-12T05:43:12.212Z,98693.97
2022-10-12T05:45:13.973Z,98682.03
2022-10-12T05:47:15.359Z,98693.03
2022-10-12T05:49:16.653Z,98683.66
2022-10-12T05:51:17.985Z,98694.78
2022-10-12T05:53:19.998Z,98695.59
2022-10-12T05:55:21.338Z,98700.66
2022-10-12T05:57:23.005Z,98693.00
2022-10-12T05:59:25.011Z,98697.25
2022-10-12T06:01:26.278Z,98694.69
2022-10-12T06:03:30.425Z,98694.69
2022-10-12T06:05:34.023Z,98692.09
2022-10-12T06:07:35.283Z,98704.88
2022-10-12T06:09:39.071Z,98698.09
2022-10-12T06:11:40.362Z,98695.53
2022-10-12T06:13:41.619Z,98703.22
2022-10-12T06:15:42.885Z,98699.81
2022-10-12T06:17:44.215Z,98695.50
2022-10-12T06:19:45.517Z,98698.91
2022-10-12T06:21:46.786Z,98696.34
2022-10-12T06:23:48.190Z,98705.69
2022-10-12T06:25:49.466Z,98710.00
2022-10-12T06:27:50.739Z,98707.44
2022-10-12T06:29:52.131Z,98710.81
2022-10-12T06:31:54.225Z,98709.09
2022-10-12T06:33:55.538Z,98713.31
2022-10-12T06:35:56.899Z,98714.19
2022-10-12T06:37:58.197Z,98715.94
2022-10-12T06:39:59.466Z,98702.25
2022-10-12T06:42:00.798Z,98718.56
2022-10-12T06:44:02.133Z,98717.69
2022-10-12T06:46:03.414Z,98714.13
2022-10-12T06:48:04.701Z,98713.88
2022-10-12T06:50:06.041Z,98715.84
2022-10-12T06:52:07.329Z,98720.22
2022-10-12T06:54:08.626Z,98718.78
2022-10-12T06:56:10.039Z,98714.09
2022-10-12T06:58:11.373Z,98714.66
2022-10-12T07:00:13.353Z,98715.28
2022-10-12T07:02:14.711Z,98713.34
2022-10-12T07:04:15.987Z,98718.31
2022-10-12T07:06:17.309Z,98714.69
2022-10-12T07:08:18.663Z,98727.31
2022-10-12T07:10:20.022Z,98727.22
2022-10-12T07:12:21.358Z,98715.16
2022-10-12T07:14:22.622Z,98717.66
2022-10-12T07:16:23.922Z,98726.88
2022-10-12T07:18:25.239Z,98723.31
2022-10-12T07:20:26.536Z,98720.63
2022-10-12T07:22:27.870Z,98715.00
2022-10-12T07:24:36.220Z,98719.50
2022-10-12T07:26:37.524Z,98721.38
2022-10-12T07:28:38.937Z,98719.75
2022-10-12T07:30:40.298Z,98723.22
2022-10-12T07:32:42.509Z,98723.88
2022-10-12T07:34:44.798Z,98722.88
2022-10-12T07:36:59.035Z,98724.56
2022-10-12T07:39:00.976Z,98719.44
2022-10-12T07:41:02.291Z,98693.22
2022-10-12T07:43:15.818Z,98722.84
2022-10-12T07:45:17.739Z,98722.06
2022-10-12T07:47:19.459Z,98721.22
2022-10-12T07:49:20.771Z,98720.34
2022-10-12T07:51:22.104Z,98721.16
2022-10-12T07:53:23.406Z,98716.84
2022-10-12T07:55:24.735Z,98720.22
2022-10-12T07:57:26.137Z,98713.44
2022-10-12T07:59:27.421Z,98720.38
2022-10-12T08:01:29.860Z,98719.63
2022-10-12T08:03:31.174Z,98718.75
2022-10-12T08:05:32.451Z,98722.16
2022-10-12T08:07:33.746Z,98719.53
2022-10-12T08:09:37.979Z,98717.78
2022-10-12T08:11:39.388Z,98718.66
2022-10-12T08:13:40.692Z,98713.50
2022-10-12T08:15:41.972Z,98720.28
2022-10-12T08:17:43.234Z,98720.28
2022-10-12T08:19:44.511Z,98718.56
2022-10-12T08:21:45.845Z,98719.41
2022-10-12T08:23:47.170Z,98713.50
2022-10-12T08:25:48.702Z,98710.13
2022-10-12T08:27:49.995Z,98715.28
2022-10-12T08:29:51.267Z,98710.19
2022-10-12T08:31:54.423Z,98713.63
2022-10-12T08:33:55.790Z,98706.81
2022-10-12T08:35:57.066Z,98704.28
2022-10-12T08:37:58.425Z,98704.28
2022-10-12T08:40:03.266Z,98706.84
2022-10-12T08:42:05.074Z,98704.28
2022-10-12T08:44:06.363Z,98700.88
2022-10-12T08:46:10.397Z,98703.44
2022-10-12T08:48:11.675Z,98699.16
2022-10-12T08:50:12.942Z,98692.34
2022-10-12T08:52:14.259Z,98700.88
2022-10-12T08:54:15.568Z,98692.25
2022-10-12T08:56:17.220Z,98699.72
2022-10-12T08:58:20.619Z,98701.25
2022-10-12T09:00:22.036Z,98697.72
2022-10-12T09:02:23.383Z,98700.19
2022-10-12T09:04:24.714Z,98690.69
2022-10-12T09:06:25.982Z,98696.66
2022-10-12T09:08:27.287Z,98691.47
2022-10-12T09:10:28.623Z,98692.28
2022-10-12T09:12:29.907Z,98688.81
2022-10-12T09:14:31.223Z,98684.50
2022-10-12T09:16:32.528Z,98694.66
2022-10-12T09:18:38.224Z,98687.88
2022-10-12T09:20:41.885Z,98691.28
2022-10-12T09:22:43.616Z,98691.28
2022-10-12T09:24:45.222Z,98702.34
2022-10-12T09:26:46.538Z,98692.06
2022-10-12T09:28:47.950Z,98698.00
2022-10-12T09:30:50.235Z,98697.97
2022-10-12T09:32:51.506Z,98698.00
2022-10-12T09:34:52.823Z,98698.88
2022-10-12T09:36:55.620Z,98694.59
2022-10-12T09:38:56.922Z,98698.22
2022-10-12T09:40:58.198Z,98704.94
2022-10-12T09:42:59.453Z,98694.16
2022-10-12T09:45:00.767Z,98697.94
2022-10-12T09:49:03.337Z,98693.47
2022-10-12T09:51:05.539Z,98696.72
2022-10-12T09:53:06.801Z,98694.19
2022-10-12T09:55:08.198Z,98696.44
2022-10-12T09:57:09.513Z,98698.31
2022-10-12T09:59:10.845Z,98692.66
2022-10-12T10:01:12.179Z,98687.22
2022-10-12T10:03:13.779Z,98696.59
2022-10-12T10:05:15.055Z,98699.09
2022-10-12T10:07:16.355Z,98693.63
2022-10-12T10:09:17.627Z,98683.91
2022-10-12T10:11:18.886Z,98690.25
2022-10-12T10:13:20.211Z,98687.72
2022-10-12T10:15:21.791Z,98687.09
2022-10-12T10:17:23.071Z,98683.47
2022-10-12T10:19:26.029Z,98681.28
2022-10-12T10:21:27.306Z,98676.41
2022-10-12T10:23:28.704Z,98673.00
2022-10-12T10:25:30.027Z,98668.78
2022-10-12T10:27:31.550Z,98669.75
2022-10-12T10:29:33.267Z,98678.28
2022-10-12T10:31:35.632Z,98677.25
2022-10-12T10:33:36.902Z,98672.63
2022-10-12T10:35:38.201Z,98672.13
2022-10-12T10:37:39.478Z,98671.34
2022-10-12T10:39:40.753Z,98665.53
2022-10-12T10:41:42.045Z,98668.34
2022-10-12T10:43:43.355Z,98667.50
2022-10-12T10:47:47.134Z,98664.31
2022-10-12T10:49:49.629Z,98660.47
2022-10-12T10:51:51.468Z,98667.94
2022-10-12T10:53:52.773Z,98662.44
2022-10-12T10:55:54.048Z,98663.34
2022-10-12T10:57:55.371Z,98668.44
2022-10-12T11:00:02.260Z,98664.16
2022-10-12T11:02:10.915Z,98665.88
2022-10-12T11:04:12.231Z,98660.81
2022-10-12T11:06:13.507Z,98661.66
2022-10-12T11:08:15.361Z,98653.06
2022-10-12T11:10:16.679Z,98658.22
2022-10-12T11:12:18.001Z,98649.66
2022-10-12T11:14:19.266Z,98651.38
2022-10-12T11:16:20.536Z,98644.53
2022-10-12T11:18:22.974Z,98642.84
2022-10-12T11:20:24.256Z,98645.44
2022-10-12T11:22:25.539Z,98651.41
2022-10-12T11:24:26.846Z,98644.56
2022-10-12T11:26:28.188Z,98647.13
2022-10-12T11:28:31.168Z,98648.81
2022-10-12T11:30:32.494Z,98637.88
2022-10-12T11:32:33.784Z,98633.66
2022-10-12T11:34:35.043Z,98624.81
2022-10-12T11:36:36.310Z,98626.56
2022-10-12T11:38:37.587Z,98629.75
2022-10-12T11:41:02.446Z,98632.72
2022-10-12T11:43:00.131Z,98635.78
2022-10-12T11:45:01.505Z,98625.81
2022-10-12T11:47:02.826Z,98623.63
2022-10-12T11:49:04.147Z,98619.63
2022-10-12T11:51:05.528Z,98619.75
2022-10-12T11:53:06.865Z,98615.94
2022-10-12T11:55:10.945Z,98623.41
2022-10-12T11:57:12.299Z,98621.72
2022-10-12T11:59:14.144Z,98615.84
2022-10-12T12:01:15.479Z,98620.13
2022-10-12T12:03:16.873Z,98612.78
2022-10-12T12:05:18.290Z,98602.44
2022-10-12T12:07:19.572Z,98617.97
2022-10-12T12:09:20.920Z,98606.13
2022-10-12T12:11:22.284Z,98611.13
2022-10-12T12:13:23.700Z,98607.06
2022-10-12T12:15:24.999Z,98593.22
2022-10-12T12:17:30.907Z,98587.63
2022-10-12T12:19:33.362Z,98588.09
2022-10-12T12:21:34.626Z,98599.16
2022-10-12T12:23:35.914Z,98592.22
2022-10-12T12:25:37.269Z,98600.69
2022-10-12T12:27:38.566Z,98588.00
2022-10-12T12:29:40.274Z,98591.97
2022-10-12T12:31:41.754Z,98591.22
2022-10-12T12:33:43.088Z,98589.81
2022-10-12T12:35:44.358Z,98587.34
2022-10-12T12:37:45.644Z,98584.66
2022-10-12T12:39:46.935Z,98592.00
2022-10-12T12:41:53.344Z,98584.28
2022-10-12T12:43:56.728Z,98584.13
2022-10-12T12:45:58.058Z,98589.09
2022-10-12T12:47:59.400Z,98584.75
2022-10-12T12:50:00.868Z,98590.88
2022-10-12T12:52:02.294Z,98577.25
2022-10-12T12:54:03.553Z,98574.75
2022-10-12T12:56:04.830Z,98581.59
2022-10-12T12:58:06.159Z,98585.00
2022-10-12T13:00:08.442Z,98588.44
2022-10-12T13:02:09.980Z,98573.91
2022-10-12T13:04:11.333Z,98583.34
2022-10-12T13:06:12.646Z,98578.22
2022-10-12T13:08:13.937Z,98578.28
2022-10-12T13:10:15.200Z,98568.91
2022-10-12T13:12:16.673Z,98564.63
2022-10-12T13:14:17.947Z,98565.50
2022-10-12T13:16:36.502Z,98579.19
2022-10-12T13:18:48.860Z,98573.19
2022-10-12T13:20:50.638Z,98579.19
2022-10-12T13:22:51.913Z,98567.34
2022-10-12T13:24:53.181Z,98582.78
2022-10-12T13:26:54.525Z,98574.34
2022-10-12T13:28:55.882Z,98574.75
2022-10-12T13:30:57.215Z,98579.28
2022-10-12T13:32:58.701Z,98571.66
2022-10-12T13:35:00.015Z,98570.13
2022-10-12T13:37:01.330Z,98571.94
2022-10-12T13:39:02.632Z,98579.75
2022-10-12T13:41:03.938Z,98565.34
2022-10-12T13:43:05.239Z,98562.63
2022-10-12T13:45:06.526Z,98561.66
2022-10-12T13:47:10.381Z,98563.47
2022-10-12T13:49:11.846Z,98567.03
2022-10-12T13:51:13.110Z,98554.28
2022-10-12T13:53:14.419Z,98547.97
2022-10-12T13:55:15.734Z,98447.41
2022-10-12T13:57:17.032Z,98548.84
2022-10-12T13:59:19.175Z,98545.75
2022-10-12T14:03:21.833Z,98547.16
2022-10-12T14:05:23.093Z,98538.06
2022-10-12T14:07:24.361Z,98549.66
2022-10-12T14:09:25.631Z,98537.19
2022-10-12T14:11:27.048Z,98536.47
2022-10-12T14:13:28.396Z,98544.16
2022-10-12T14:15:29.686Z,98545.88
2022-10-12T14:17:30.963Z,98543.53
2022-10-12T14:19:32.678Z,98535.38
2022-10-12T14:21:36.816Z,98538.59
2022-10-12T14:23:38.288Z,98535.97
2022-10-12T14:25:39.566Z,98532.13
2022-10-12T14:27:40.903Z,98531.38
2022-10-12T14:29:42.587Z,98536.47
2022-10-12T14:31:43.865Z,98525.34
2022-10-12T14:33:45.159Z,98524.75
2022-10-12T14:35:49.681Z,98522.09
2022-10-12T14:37:51.028Z,98507.78
2022-10-12T14:39:59.283Z,98520.19
2022-10-12T14:42:00.779Z,98511.31
2022-10-12T14:44:02.064Z,98513.56
2022-10-12T14:46:03.354Z,98507.91
2022-10-12T14:48:05.554Z,98506.97
2022-10-12T14:50:08.317Z,98513.88
2022-10-12T14:52:09.663Z,98514.75
2022-10-12T14:54:11.405Z,98499.50
2022-10-12T14:56:15.390Z,98508.97
2022-10-12T14:58:16.709Z,98502.97
2022-10-12T15:00:17.992Z,98507.78
2022-10-12T15:02:19.311Z,98507.66
2022-10-12T15:04:20.590Z,98494.38
2022-10-12T15:06:21.903Z,98503.91
2022-10-12T15:08:23.204Z,98502.25
2022-10-12T15:10:24.523Z,98502.19
2022-10-12T15:12:25.874Z,98497.00
2022-10-12T15:14:27.174Z,98494.41
2022-10-12T15:16:29.528Z,98496.13
2022-10-12T15:18:30.824Z,98502.59
2022-10-12T15:20:32.174Z,98497.00
2022-10-12T15:22:33.471Z,98497.59
2022-10-12T15:24:35.685Z,98494.09
2022-10-12T15:26:42.301Z,98494.00
2022-10-12T15:28:44.046Z,98500.25
2022-10-12T15:31:04.589Z,98497.66
2022-10-12T15:33:07.282Z,98496.06
2022-10-12T15:35:08.566Z,98495.84
2022-10-12T15:37:09.850Z,98487.00
2022-10-12T15:39:11.167Z,98496.53
2022-10-12T15:41:12.614Z,98489.19
2022-10-12T15:43:13.934Z,98488.88
2022-10-12T15:45:15.372Z,98491.16
2022-10-12T15:47:16.676Z,98490.22
2022-10-12T15:49:24.134Z,98488.28
2022-10-12T15:51:25.432Z,98485.72
2022-10-12T15:53:27.308Z,98480.66
2022-10-12T15:55:28.649Z,98480.66
2022-10-12T15:57:30.096Z,98481.50
2022-10-12T15:59:31.377Z,98481.31
2022-10-12T16:01:32.693Z,98480.34
2022-10-12T16:03:34.006Z,98490.53
2022-10-12T16:05:38.230Z,98368.97
2022-10-12T16:09:40.784Z,98484.94
2022-10-12T16:11:42.129Z,98493.72
2022-10-12T16:13:51.049Z,98501.38
2022-10-12T16:15:55.580Z,98483.41
2022-10-12T16:17:56.848Z,98484.56
2022-10-12T16:19:58.108Z,98493.97
2022-10-12T16:22:01.122Z,98488.94
2022-10-12T16:24:03.659Z,98482.91
2022-10-12T16:26:05.078Z,98488.75
2022-10-12T16:28:06.340Z,98490.28
2022-10-12T16:30:07.618Z,98485.31
2022-10-12T16:32:09.089Z,98489.19
2022-10-12T16:34:10.365Z,98484.84
2022-10-12T16:36:11.707Z,98488.59
2022-10-12T16:38:14.733Z,98486.22
2022-10-12T16:40:16.062Z,98488.06
2022-10-12T16:42:17.454Z,98488.00
2022-10-12T16:44:18.754Z,98484.59
2022-10-12T16:46:20.033Z,98484.44
2022-10-12T16:48:24.548Z,98493.00
2022-10-12T16:50:25.904Z,98498.97
2022-10-12T16:52:27.245Z,98491.59
2022-10-12T16:54:34.666Z,98497.75
2022-10-12T16:56:39.245Z,98502.72
2022-10-12T16:58:41.329Z,98497.88
2022-10-12T17:00:43.404Z,98495.75
2022-10-12T17:02:44.756Z,98499.09
2022-10-12T17:04:46.198Z,98495.66
2022-10-12T17:06:47.485Z,98492.16
2022-10-12T17:08:48.811Z,98496.47
2022-10-12T17:10:50.325Z,98498.91
2022-10-12T17:12:54.382Z,98493.63
2022-10-12T17:14:55.651Z,98498.75
2022-10-12T17:16:57.532Z,98494.56
2022-10-12T17:18:59.730Z,98497.13
2022-10-12T17:21:01.227Z,98491.13
2022-10-12T17:23:02.518Z,98491.78
2022-10-12T17:25:06.550Z,98490.13
2022-10-12T17:27:07.867Z,98501.19
2022-10-12T17:29:09.155Z,98493.28
2022-10-12T17:31:11.820Z,98489.16
2022-10-12T17:33:13.326Z,98491.44
2022-10-12T17:35:14.601Z,98492.44
2022-10-12T17:37:15.954Z,98495.84
2022-10-12T17:39:17.257Z,98494.78
2022-10-12T17:41:18.565Z,98489.31
2022-10-12T17:43:26.741Z,98486.88
2022-10-12T17:45:28.157Z,98486.28
2022-10-12T17:47:29.466Z,98487.38
2022-10-12T17:49:30.758Z,98482.19
2022-10-12T17:51:32.085Z,98483.16
2022-10-12T17:53:33.737Z,98489.94
2022-10-12T17:55:49.389Z,98495.66
2022-10-12T17:57:50.669Z,98489.50
2022-10-12T17:59:51.988Z,98498.22
2022-10-12T18:01:53.407Z,98494.81
2022-10-12T18:03:55.454Z,98488.44
2022-10-12T18:05:59.664Z,98496.88
2022-10-12T18:08:00.939Z,98499.97
2022-10-12T18:10:02.210Z,98489.59
2022-10-12T18:12:03.486Z,98366.09
2022-10-12T18:14:07.762Z,98490.53
2022-10-12T18:16:12.296Z,98486.16
2022-10-12T18:18:15.373Z,98477.41
2022-10-12T18:20:18.472Z,98483.59
2022-10-12T18:22:19.912Z,98484.53
2022-10-12T18:24:23.202Z,98488.59
2022-10-12T18:26:27.711Z,98484.22
2022-10-12T18:28:29.106Z,98476.34
2022-10-12T18:30:30.411Z,98482.75
2022-10-12T18:32:31.723Z,98474.84
2022-10-12T18:34:42.225Z,98476.91
2022-10-12T18:36:43.711Z,98475.19
2022-10-12T18:38:45.147Z,98487.59
2022-10-12T18:40:47.581Z,98490.31
2022-10-12T18:42:51.791Z,98488.22
2022-10-12T18:44:55.773Z,98479.97
2022-10-12T18:47:00.146Z,98476.38
2022-10-12T18:49:02.808Z,98478.81
2022-10-12T18:51:04.345Z,98476.47
2022-10-12T18:53:05.675Z,98472.31
2022-10-12T18:55:09.952Z,98473.91
2022-10-12T18:57:11.209Z,98477.13
2022-10-12T18:59:12.567Z,98478.28
2022-10-12T19:01:14.890Z,98478.13
2022-10-12T19:03:16.200Z,98482.88
2022-10-12T19:05:17.503Z,98483.59
2022-10-12T19:07:18.998Z,98473.22
2022-10-12T19:09:20.461Z,98470.63
2022-10-12T19:11:21.727Z,98470.59
2022-10-12T19:13:23.023Z,98472.13
2022-10-12T19:15:28.719Z,98465.16
2022-10-12T19:17:30.015Z,98465.94
2022-10-12T19:19:32.232Z,98471.19
2022-10-12T19:21:34.285Z,98467.91
2022-10-12T19:23:35.558Z,98467.84
2022-10-12T19:25:36.835Z,98476.31
2022-10-12T19:27:38.097Z,98468.50
2022-10-12T19:29:42.395Z,98465.66
2022-10-12T19:31:46.863Z,98470.53
2022-10-12T19:33:51.354Z,98471.28
2022-10-12T19:35:52.658Z,98470.72
2022-10-12T19:37:54.451Z,98474.50
2022-10-12T19:39:55.938Z,98468.09
2022-10-12T19:41:57.223Z,98470.78
2022-10-12T19:43:58.518Z,98463.66
2022-10-12T19:45:59.799Z,98464.56
2022-10-12T19:48:01.074Z,98463.72
2022-10-12T19:50:02.418Z,98457.53
2022-10-12T19:52:03.752Z,98455.03
2022-10-12T19:54:05.187Z,98454.19
2022-10-12T19:56:06.479Z,98458.19
2022-10-12T19:58:07.764Z,98455.59
2022-10-12T20:00:09.078Z,98453.31
2022-10-12T20:02:10.510Z,98452.34
2022-10-12T20:04:12.080Z,98450.75
2022-10-12T20:06:13.417Z,98451.75
2022-10-12T20:08:14.706Z,98448.38
2022-10-12T20:10:16.004Z,98447.47
2022-10-12T20:12:17.413Z,98447.66
2022-10-12T20:14:18.868Z,98445.00
2022-10-12T20:16:20.194Z,98446.78
2022-10-12T20:18:21.644Z,98439.09
2022-10-12T20:20:22.976Z,98443.28
2022-10-12T20:22:24.242Z,98441.56
2022-10-12T20:24:25.655Z,98445.00
2022-10-12T20:26:26.972Z,98444.91
2022-10-12T20:28:28.257Z,98431.97
2022-10-12T20:30:29.644Z,98435.47
2022-10-12T20:32:30.918Z,98434.38
2022-10-12T20:34:32.182Z,98434.81
2022-10-12T20:36:33.526Z,98438.06
2022-10-12T20:38:34.854Z,98440.59
2022-10-12T20:40:36.126Z,98441.34
2022-10-12T20:42:37.410Z,98445.53
2022-10-12T20:44:38.735Z,98445.44
2022-10-12T20:46:40.174Z,98450.25
2022-10-12T20:48:41.492Z,98446.91
2022-10-12T20:50:42.754Z,98446.34
2022-10-12T20:52:44.026Z,98442.06
2022-10-12T20:54:45.328Z,98444.00
2022-10-12T20:56:52.241Z,98437.28
2022-10-12T20:58:54.279Z,98439.84
2022-10-12T21:00:55.597Z,98442.59
2022-10-12T21:02:56.874Z,98439.69
2022-10-12T21:05:00.938Z,98440.59
2022-10-12T21:07:02.207Z,98435.72
2022-10-12T21:09:03.485Z,98436.34
2022-10-12T21:11:04.784Z,98428.53
2022-10-12T21:13:06.067Z,98428.44
2022-10-12T21:15:07.351Z,98425.94
2022-10-12T21:17:08.843Z,98424.97
2022-10-12T21:19:10.133Z,98425.69
2022-10-12T21:21:11.630Z,98432.06
2022-10-12T21:23:13.020Z,98432.19
2022-10-12T21:25:14.300Z,98435.94
2022-10-12T21:27:15.574Z,98434.38
2022-10-12T21:29:16.946Z,98432.09
2022-10-12T21:31:18.207Z,98432.25
2022-10-12T21:33:19.699Z,98429.09
2022-10-12T21:35:21.015Z,98441.13
2022-10-12T21:37:22.307Z,98438.56
2022-10-12T21:39:23.694Z,98434.38
2022-10-12T21:41:25.977Z,98440.81
2022-10-12T21:43:27.291Z,98441.75
2022-10-12T21:45:28.609Z,98443.44
2022-10-12T21:47:29.949Z,98434.03
2022-10-12T21:49:31.250Z,98437.47
2022-10-12T21:51:32.519Z,98438.94
2022-10-12T21:53:34.084Z,98314.19
2022-10-12T21:55:35.383Z,98431.13
2022-10-12T21:57:37.317Z,98426.25
2022-10-12T21:59:39.001Z,98427.53
2022-10-12T22:01:40.396Z,98438.94
2022-10-12T22:03:41.671Z,98438.00
2022-10-12T22:05:42.951Z,98427.72
2022-10-12T22:07:44.257Z,98434.53
2022-10-12T22:09:45.571Z,98430.28
2022-10-12T22:11:47.046Z,98429.41
2022-10-12T22:13:48.326Z,98425.19
2022-10-12T22:15:49.608Z,98427.88
2022-10-12T22:17:50.902Z,98424.47
2022-10-12T22:19:52.206Z,98434.72
2022-10-12T22:21:53.511Z,98426.25
2022-10-12T22:23:54.802Z,98431.41
2022-10-12T22:25:56.117Z,98430.66
2022-10-12T22:27:57.407Z,98423.00
2022-10-12T22:30:00.398Z,98423.88
2022-10-12T22:32:01.696Z,98420.47
2022-10-12T22:34:02.974Z,98419.69
2022-10-12T22:36:04.360Z,98296.91
2022-10-12T22:38:05.642Z,98418.97
2022-10-12T22:40:06.966Z,98419.81
2022-10-12T22:42:08.239Z,98419.88
2022-10-12T22:44:09.613Z,98419.06
2022-10-12T22:46:10.954Z,98417.38
2022-10-12T22:48:12.243Z,98410.56
2022-10-12T22:50:13.533Z,98410.66
2022-10-12T22:52:14.814Z,98408.13
2022-10-12T22:54:16.148Z,98420.97
2022-10-12T22:56:17.622Z,98421.03
2022-10-12T22:58:18.890Z,98415.94
2022-10-12T23:00:20.166Z,98419.38
2022-10-12T23:02:21.762Z,98427.06
2022-10-12T23:04:23.139Z,98416.00
2022-10-12T23:06:24.402Z,98412.63
2022-10-12T23:08:25.748Z,98416.06
2022-10-12T23:10:27.018Z,98417.81
2022-10-12T23:12:28.298Z,98419.50
2022-10-12T23:14:29.655Z,98417.84
2022-10-12T23:16:30.966Z,98421.16
2022-10-12T23:18:33.439Z,98419.38
2022-10-12T23:20:34.755Z,98416.81
2022-10-12T23:22:36.038Z,98409.16
2022-10-12T23:24:37.322Z,98410.03
2022-10-12T23:26:38.635Z,98410.03
2022-10-12T23:28:39.969Z,98416.00
2022-10-12T23:30:41.298Z,98408.34
2022-10-12T23:32:42.582Z,98410.84
2022-10-12T23:34:43.859Z,98405.72
2022-10-12T23:36:45.174Z,98404.94
2022-10-12T23:38:46.494Z,98413.50
2022-10-12T23:40:47.827Z,98416.84
2022-10-12T23:42:49.205Z,98418.56
2022-10-12T23:44:50.499Z,98418.59
2022-10-12T23:46:51.827Z,98419.50
2022-10-12T23:48:53.107Z,98410.94
2022-10-12T23:50:54.591Z,98408.44
2022-10-12T23:52:55.886Z,98405.84
2022-10-12T23:54:57.154Z,98404.94
2022-10-12T23:56:58.414Z,98408.38
2022-10-12T23:59:00.640Z,98402.28
